createdAt,value
2022-12-09T00:00:12.993Z,100268.72
2022-12-09T00:01:16.841Z,100271.41
2022-12-09T00:02:19.551Z,100262.59
2022-12-09T00:03:23.828Z,100261.75
2022-12-09T00:04:27.088Z,100263.44
2022-12-09T00:05:28.810Z,100264.28
2022-12-09T00:06:33.140Z,100265.13
2022-12-09T00:07:35.045Z,100262.50
2022-12-09T00:08:37.648Z,100257.34
2022-12-09T00:09:39.522Z,100256.50
2022-12-09T00:10:44.911Z,100255.63
2022-12-09T00:11:47.657Z,100260.91
2022-12-09T00:12:55.158Z,100259.25
2022-12-09T00:13:58.933Z,100252.28
2022-12-09T00:15:01.536Z,100250.59
2022-12-09T00:16:07.271Z,100257.75
2022-12-09T00:17:10.192Z,100254.38
2022-12-09T00:18:12.027Z,100256.25
2022-12-09T00:19:15.887Z,100254.56
2022-12-09T00:20:20.223Z,100258.25
2022-12-09T00:21:25.288Z,100249.53
2022-12-09T00:22:27.316Z,100252.28
2022-12-09T00:23:29.884Z,100260.25
2022-12-09T00:24:32.423Z,100255.84
2022-12-09T00:25:35.277Z,100249.72
2022-12-09T00:26:37.089Z,100257.63
2022-12-09T00:27:39.642Z,100256.69
2022-12-09T00:28:43.584Z,100255.00
2022-12-09T00:29:46.146Z,100253.31
2022-12-09T00:30:48.006Z,100249.72
2022-12-09T00:31:51.060Z,100257.63
2022-12-09T00:32:52.848Z,100262.16
2022-12-09T00:33:58.509Z,100255.19
2022-12-09T00:35:00.395Z,100256.34
2022-12-09T00:36:08.337Z,100254.66
2022-12-09T00:37:10.868Z,100256.44
2022-12-09T00:38:12.748Z,100253.91
2022-12-09T00:39:15.323Z,100253.09
2022-12-09T00:40:16.856Z,100256.66
2022-12-09T00:41:19.974Z,100255.81
2022-12-09T00:42:25.200Z,100262.78
2022-12-09T00:43:27.162Z,100253.91
2022-12-09T00:44:31.066Z,100259.16
2022-12-09T00:45:38.176Z,100258.22
2022-12-09T00:46:39.970Z,100266.25
2022-12-09T00:47:42.920Z,100258.34
2022-12-09T00:48:45.507Z,100264.56
2022-12-09T00:49:48.210Z,100261.06
2022-12-09T00:50:50.038Z,100261.06
2022-12-09T00:51:54.100Z,100257.59
2022-12-09T00:52:55.992Z,100256.75
2022-12-09T00:53:58.566Z,100255.81
2022-12-09T00:55:00.491Z,100254.88
2022-12-09T00:56:03.364Z,100250.47
2022-12-09T00:57:05.116Z,100247.91
2022-12-09T00:58:08.345Z,100252.25
2022-12-09T00:59:10.000Z,100253.91
2022-12-09T01:00:14.767Z,100252.25
2022-12-09T01:01:16.420Z,100253.09
2022-12-09T01:02:19.116Z,100251.19
2022-12-09T01:03:21.490Z,100252.03
2022-12-09T01:04:25.808Z,100247.63
2022-12-09T01:05:27.631Z,100255.53
2022-12-09T01:06:30.235Z,100254.56
2022-12-09T01:07:32.022Z,100249.41
2022-12-09T01:08:38.473Z,100247.72
2022-12-09T01:09:40.877Z,100249.50
2022-12-09T01:10:45.307Z,100245.94
2022-12-09T01:11:46.871Z,100251.19
2022-12-09T01:12:49.495Z,100253.81
2022-12-09T01:13:51.426Z,100246.78
2022-12-09T01:14:54.087Z,100252.03
2022-12-09T01:15:57.234Z,100253.81
2022-12-09T01:16:59.978Z,100258.16
2022-12-09T01:18:01.780Z,100258.16
2022-12-09T01:19:08.376Z,100257.94
2022-12-09T01:20:10.974Z,100258.66
2022-12-09T01:21:14.564Z,100258.59
2022-12-09T01:22:17.441Z,100257.63
2022-12-09T01:23:19.051Z,100261.94
2022-12-09T01:24:22.141Z,100261.94
2022-12-09T01:25:23.699Z,100262.78
2022-12-09T01:26:26.614Z,100264.44
2022-12-09T01:27:29.764Z,100266.16
2022-12-09T01:28:32.489Z,100266.16
2022-12-09T01:29:34.492Z,100263.44
2022-12-09T01:30:37.128Z,100266.91
2022-12-09T01:31:40.813Z,100266.78
2022-12-09T01:32:43.828Z,100262.47
2022-12-09T01:33:46.334Z,100268.69
2022-12-09T01:34:49.336Z,100261.72
2022-12-09T01:35:51.032Z,100263.44
2022-12-09T01:36:53.946Z,100263.44
2022-12-09T01:37:55.766Z,100264.38
2022-12-09T01:39:00.929Z,100265.31
2022-12-09T01:40:06.016Z,100267.94
2022-12-09T01:41:09.070Z,100267.00
2022-12-09T01:42:19.377Z,100265.22
2022-12-09T01:43:22.694Z,100267.00
2022-12-09T01:44:26.086Z,100267.00
2022-12-09T01:45:44.219Z,100267.00
2022-12-09T01:46:48.551Z,100267.84
2022-12-09T01:47:54.436Z,100265.31
2022-12-09T01:48:56.975Z,100265.31
2022-12-09T01:49:58.895Z,100268.91
2022-12-09T01:51:04.237Z,100268.78
2022-12-09T01:52:10.363Z,100266.16
2022-12-09T01:53:14.648Z,100267.00
2022-12-09T01:54:16.893Z,100265.09
2022-12-09T01:55:19.932Z,100266.78
2022-12-09T01:56:25.565Z,100260.59
2022-12-09T01:57:28.160Z,100264.88
2022-12-09T01:58:29.896Z,100258.81
2022-12-09T01:59:32.903Z,100260.59
2022-12-09T02:00:39.347Z,100256.25
2022-12-09T02:01:43.371Z,100248.50
2022-12-09T02:02:48.874Z,100259.03
2022-12-09T02:03:51.826Z,100249.53
2022-12-09T02:04:54.965Z,100253.94
2022-12-09T02:05:57.787Z,100255.63
2022-12-09T02:07:02.199Z,100249.63
2022-12-09T02:08:07.949Z,100250.69
2022-12-09T02:09:10.309Z,100249.94
2022-12-09T02:10:16.187Z,100250.91
2022-12-09T02:11:30.111Z,100252.69
2022-12-09T02:12:39.845Z,100254.56
2022-12-09T02:13:48.475Z,100252.78
2022-12-09T02:14:57.281Z,100258.03
2022-12-09T02:18:45.551Z,100258.78
2022-12-09T02:20:01.723Z,100249.22
2022-12-09T02:21:13.103Z,100253.69
2022-12-09T02:22:20.573Z,100243.19
2022-12-09T02:23:28.034Z,100251.00
2022-12-09T02:24:40.187Z,100240.47
2022-12-09T02:25:47.604Z,100244.78
2022-12-09T02:26:55.803Z,100231.66
2022-12-09T02:28:18.427Z,100236.91
2022-12-09T02:29:38.426Z,100235.94
2022-12-09T02:30:47.833Z,100238.56
2022-12-09T02:32:07.591Z,100232.38
2022-12-09T02:33:25.636Z,100228.03
2022-12-09T02:34:31.885Z,100229.00
2022-12-09T02:35:40.550Z,100236.06
2022-12-09T02:36:52.360Z,100231.72
2022-12-09T02:37:59.531Z,100233.63
2022-12-09T02:39:02.367Z,100236.25
2022-12-09T02:40:11.122Z,100230.16
2022-12-09T02:41:20.252Z,100239.81
2022-12-09T02:42:25.357Z,100230.25
2022-12-09T02:43:32.826Z,100231.22
2022-12-09T02:44:38.042Z,100229.50
2022-12-09T02:45:42.386Z,100233.00
2022-12-09T02:46:45.722Z,100229.50
2022-12-09T02:47:51.407Z,100233.84
2022-12-09T02:48:57.206Z,100232.16
2022-12-09T02:50:03.816Z,100238.34
2022-12-09T02:51:10.992Z,100236.69
2022-12-09T02:52:13.849Z,100232.34
2022-12-09T02:53:18.733Z,100229.72
2022-12-09T02:54:21.371Z,100230.56
2022-12-09T02:55:28.195Z,100232.16
2022-12-09T02:56:30.323Z,100232.16
2022-12-09T02:57:36.016Z,100230.25
2022-12-09T02:58:37.584Z,100226.88
2022-12-09T02:59:40.562Z,100230.25
2022-12-09T03:00:42.720Z,100218.16
2022-12-09T03:01:52.267Z,100222.56
2022-12-09T03:02:58.178Z,100226.16
2022-12-09T03:04:07.246Z,100216.75
2022-12-09T03:05:21.438Z,100217.91
2022-12-09T03:06:27.146Z,100214.53
2022-12-09T03:07:34.171Z,100217.38
2022-12-09T03:08:43.967Z,100214.75
2022-12-09T03:09:52.927Z,100219.16
2022-12-09T03:11:01.116Z,100219.16
2022-12-09T03:12:09.082Z,100222.63
2022-12-09T03:13:17.044Z,100217.38
2022-12-09T03:14:25.595Z,100221.66
2022-12-09T03:15:31.751Z,100226.91
2022-12-09T03:16:37.084Z,100218.09
2022-12-09T03:17:41.644Z,100221.66
2022-12-09T03:18:49.328Z,100219.03
2022-12-09T03:19:54.859Z,100218.19
2022-12-09T03:20:59.249Z,100221.66
2022-12-09T03:22:05.397Z,100222.44
2022-12-09T03:23:11.247Z,100222.31
2022-12-09T03:24:17.703Z,100222.22
2022-12-09T03:25:25.091Z,100215.25
2022-12-09T03:26:30.939Z,100214.31
2022-12-09T03:27:39.263Z,100215.06
2022-12-09T03:28:45.002Z,100211.56
2022-12-09T03:29:50.415Z,100204.66
2022-12-09T03:30:53.505Z,100209.06
2022-12-09T03:31:59.782Z,100208.22
2022-12-09T03:33:03.906Z,100209.06
2022-12-09T03:34:10.944Z,100207.28
2022-12-09T03:35:26.607Z,100204.53
2022-12-09T03:36:36.158Z,100200.13
2022-12-09T03:37:40.463Z,100209.72
2022-12-09T03:38:46.635Z,100205.34
2022-12-09T03:39:51.320Z,100207.97
2022-12-09T03:41:01.638Z,100208.00
2022-12-09T03:42:09.649Z,100211.50
2022-12-09T03:43:15.200Z,100210.66
2022-12-09T03:44:20.262Z,100212.25
2022-12-09T03:45:24.872Z,100204.28
2022-12-09T03:46:29.087Z,100204.16
2022-12-09T03:47:31.823Z,100204.91
2022-12-09T03:48:34.008Z,100209.31
2022-12-09T03:49:38.996Z,100202.28
2022-12-09T03:50:46.640Z,100204.91
2022-12-09T03:51:56.598Z,100203.22
2022-12-09T03:53:03.670Z,100203.22
2022-12-09T03:54:10.654Z,100202.38
2022-12-09T03:55:19.565Z,100197.13
2022-12-09T03:56:25.417Z,100197.97
2022-12-09T03:57:28.685Z,100200.59
2022-12-09T03:58:33.446Z,100192.69
2022-12-09T03:59:36.636Z,100197.97
2022-12-09T04:00:39.254Z,100200.59
2022-12-09T04:01:44.705Z,100202.28
2022-12-09T04:02:47.027Z,100206.59
2022-12-09T04:03:50.916Z,100198.81
2022-12-09T04:04:52.738Z,100192.63
2022-12-09T04:05:55.333Z,100203.13
2022-12-09T04:06:58.706Z,100197.97
2022-12-09T04:08:01.425Z,100201.53
2022-12-09T04:09:04.337Z,100188.50
2022-12-09T04:10:08.662Z,100197.25
2022-12-09T04:11:10.626Z,100195.53
2022-12-09T04:12:13.424Z,100198.06
2022-12-09T04:13:15.035Z,100195.53
2022-12-09T04:14:17.775Z,100197.25
2022-12-09T04:15:19.468Z,100202.59
2022-12-09T04:16:22.066Z,100195.63
2022-12-09T04:17:23.689Z,100197.44
2022-12-09T04:18:27.159Z,100187.06
2022-12-09T04:19:28.942Z,100199.50
2022-12-09T04:20:31.512Z,100195.28
2022-12-09T04:21:33.031Z,100188.44
2022-12-09T04:22:37.078Z,100187.69
2022-12-09T04:23:42.957Z,100186.97
2022-12-09T04:24:46.048Z,100192.44
2022-12-09T04:25:47.583Z,100184.75
2022-12-09T04:26:50.216Z,100185.69
2022-12-09T04:27:52.189Z,100179.69
2022-12-09T04:28:54.921Z,100185.88
2022-12-09T04:29:56.460Z,100185.97
2022-12-09T04:30:59.485Z,100179.16
2022-12-09T04:32:01.340Z,100179.25
2022-12-09T04:33:03.988Z,100179.34
2022-12-09T04:34:09.519Z,100176.00
2022-12-09T04:35:12.664Z,100181.44
2022-12-09T04:36:16.631Z,100174.59
2022-12-09T04:37:19.181Z,100185.22
2022-12-09T04:38:22.102Z,100183.53
2022-12-09T04:39:25.202Z,100182.03
2022-12-09T04:40:26.907Z,100172.50
2022-12-09T04:41:29.669Z,100179.53
2022-12-09T04:42:31.218Z,100176.13
2022-12-09T04:43:33.837Z,100176.25
2022-12-09T04:44:35.756Z,100178.88
2022-12-09T04:45:38.473Z,100181.50
2022-12-09T04:46:40.395Z,100178.88
2022-12-09T04:47:43.087Z,100177.94
2022-12-09T04:48:45.146Z,100178.88
2022-12-09T04:49:47.971Z,100170.06
2022-12-09T04:50:49.651Z,100178.88
2022-12-09T04:51:52.315Z,100169.22
2022-12-09T04:52:54.000Z,100169.22
2022-12-09T04:53:58.821Z,100175.31
2022-12-09T04:55:00.444Z,100170.88
2022-12-09T04:56:06.218Z,100172.69
2022-12-09T04:57:08.514Z,100172.69
2022-12-09T04:58:11.063Z,100176.25
2022-12-09T04:59:12.896Z,100178.88
2022-12-09T05:00:16.898Z,100182.44
2022-12-09T05:01:28.237Z,100177.19
2022-12-09T05:02:33.392Z,100176.25
2022-12-09T05:03:36.046Z,100172.69
2022-12-09T05:04:38.894Z,100178.66
2022-12-09T05:05:41.123Z,100177.75
2022-12-09T05:06:44.173Z,100175.84
2022-12-09T05:07:46.009Z,100173.84
2022-12-09T05:08:49.209Z,100175.56
2022-12-09T05:09:53.088Z,100179.03
2022-12-09T05:10:56.041Z,100171.88
2022-12-09T05:11:58.062Z,100165.69
2022-12-09T05:13:00.931Z,100168.31
2022-12-09T05:14:03.785Z,100173.56
2022-12-09T05:15:06.430Z,100178.72
2022-12-09T05:16:15.936Z,100177.84
2022-12-09T05:17:20.535Z,100177.84
2022-12-09T05:18:22.677Z,100180.50
2022-12-09T05:19:25.824Z,100178.91
2022-12-09T05:20:29.194Z,100177.84
2022-12-09T05:21:31.944Z,100176.06
2022-12-09T05:22:33.635Z,100180.50
2022-12-09T05:23:37.501Z,100173.66
2022-12-09T05:24:41.117Z,100178.81
2022-12-09T05:25:45.500Z,100180.50
2022-12-09T05:26:47.375Z,100176.06
2022-12-09T05:27:50.896Z,100180.50
2022-12-09T05:28:52.715Z,100180.59
2022-12-09T05:29:55.920Z,100172.59
2022-12-09T05:30:59.844Z,100176.06
2022-12-09T05:32:02.917Z,100174.31
2022-12-09T05:33:05.085Z,100167.34
2022-12-09T05:34:07.881Z,100168.19
2022-12-09T05:35:11.515Z,100173.44
2022-12-09T05:36:15.869Z,100172.59
2022-12-09T05:37:18.814Z,100171.75
2022-12-09T05:38:21.953Z,100165.69
2022-12-09T05:39:25.161Z,100170.94
2022-12-09T05:40:27.028Z,100164.84
2022-12-09T05:41:31.359Z,100165.69
2022-12-09T05:42:37.884Z,100164.00
2022-12-09T05:43:44.017Z,100163.06
2022-12-09T05:44:46.050Z,100160.44
2022-12-09T05:45:49.116Z,100164.00
2022-12-09T05:46:50.770Z,100163.06
2022-12-09T05:47:54.352Z,100164.00
2022-12-09T05:48:56.246Z,100163.16
2022-12-09T05:50:04.391Z,100157.03
2022-12-09T05:51:14.305Z,100158.94
2022-12-09T05:52:17.328Z,100162.50
2022-12-09T05:53:19.878Z,100163.56
2022-12-09T05:54:22.551Z,100156.59
2022-12-09T05:55:24.250Z,100163.63
2022-12-09T05:56:31.780Z,100164.59
2022-12-09T05:57:34.370Z,100161.97
2022-12-09T05:58:37.397Z,100158.50
2022-12-09T05:59:40.315Z,100161.97
2022-12-09T06:00:42.024Z,100162.91
2022-12-09T06:01:44.683Z,100155.97
2022-12-09T06:02:46.360Z,100157.66
2022-12-09T06:03:50.516Z,100155.97
2022-12-09T06:04:52.880Z,100158.50
2022-12-09T06:05:56.084Z,100154.31
2022-12-09T06:06:57.971Z,100156.81
2022-12-09T06:08:05.263Z,100151.56
2022-12-09T06:09:11.582Z,100153.25
2022-12-09T06:10:15.765Z,100157.66
2022-12-09T06:11:20.350Z,100156.72
2022-12-09T06:12:25.110Z,100152.41
2022-12-09T06:13:27.417Z,100154.09
2022-12-09T06:14:30.351Z,100154.94
2022-12-09T06:15:35.096Z,100155.75
2022-12-09T06:16:38.869Z,100152.19
2022-12-09T06:17:41.054Z,100153.88
2022-12-09T06:18:43.803Z,100148.63
2022-12-09T06:19:46.159Z,100152.94
2022-12-09T06:20:49.116Z,100150.31
2022-12-09T06:21:50.748Z,100151.16
2022-12-09T06:22:53.554Z,100152.00
2022-12-09T06:23:55.621Z,100152.75
2022-12-09T06:24:58.343Z,100154.53
2022-12-09T06:26:00.275Z,100149.16
2022-12-09T06:27:07.099Z,100153.47
2022-12-09T06:28:10.058Z,100147.38
2022-12-09T06:29:12.840Z,100147.28
2022-12-09T06:30:14.989Z,100149.06
2022-12-09T06:31:18.322Z,100143.91
2022-12-09T06:32:20.986Z,100150.84
2022-12-09T06:33:53.090Z,100141.28
2022-12-09T06:34:46.449Z,100145.47
2022-12-09T06:35:48.404Z,100142.75
2022-12-09T06:36:51.454Z,100140.13
2022-12-09T06:37:53.470Z,100148.88
2022-12-09T06:38:57.940Z,100145.41
2022-12-09T06:40:02.003Z,100143.63
2022-12-09T06:41:07.032Z,100145.31
2022-12-09T06:42:10.166Z,100141.72
2022-12-09T06:43:22.347Z,100144.34
2022-12-09T06:44:26.307Z,100133.94
2022-12-09T06:45:28.203Z,100136.66
2022-12-09T06:46:31.231Z,100137.59
2022-12-09T06:47:33.681Z,100140.34
2022-12-09T06:48:36.545Z,100144.75
2022-12-09T06:49:38.517Z,100140.34
2022-12-09T06:50:41.585Z,100134.38
2022-12-09T06:51:44.667Z,100142.97
2022-12-09T06:52:46.660Z,100138.66
2022-12-09T06:53:49.470Z,100147.38
2022-12-09T06:54:51.250Z,100140.44
2022-12-09T06:55:54.149Z,100148.44
2022-12-09T06:56:57.015Z,100146.00
2022-12-09T06:57:59.200Z,100143.59
2022-12-09T06:59:07.799Z,100143.78
2022-12-09T07:00:10.635Z,100144.00
2022-12-09T07:01:17.098Z,100143.34
2022-12-09T07:02:19.947Z,100152.38
2022-12-09T07:03:23.546Z,100146.47
2022-12-09T07:04:26.850Z,100148.56
2022-12-09T07:05:29.189Z,100148.75
2022-12-09T07:06:35.586Z,100154.19
2022-12-09T07:07:38.842Z,100149.16
2022-12-09T07:08:41.084Z,100151.97
2022-12-09T07:09:44.315Z,100153.09
2022-12-09T07:10:51.728Z,100150.66
2022-12-09T07:12:06.841Z,100152.56
2022-12-09T07:13:08.590Z,100157.09
2022-12-09T07:14:14.159Z,100151.25
2022-12-09T07:15:16.442Z,100153.16
2022-12-09T07:16:20.210Z,100157.66
2022-12-09T07:17:23.201Z,100150.94
2022-12-09T07:18:26.071Z,100152.78
2022-12-09T07:19:29.846Z,100156.38
2022-12-09T07:20:32.734Z,100154.69
2022-12-09T07:21:34.661Z,100152.13
2022-12-09T07:22:37.837Z,100164.53
2022-12-09T07:23:40.215Z,100163.69
2022-12-09T07:24:43.282Z,100161.06
2022-12-09T07:25:45.308Z,100160.31
2022-12-09T07:26:48.660Z,100158.63
2022-12-09T07:27:51.699Z,100162.19
2022-12-09T07:28:53.758Z,100167.44
2022-12-09T07:29:58.439Z,100171.00
2022-12-09T07:31:00.847Z,100160.53
2022-12-09T07:32:04.009Z,100164.06
2022-12-09T07:33:07.083Z,100171.94
2022-12-09T07:34:11.909Z,100171.09
2022-12-09T07:35:15.507Z,100165.84
2022-12-09T07:36:21.231Z,100170.25
2022-12-09T07:37:24.637Z,100172.88
2022-12-09T07:38:27.800Z,100169.41
2022-12-09T07:39:29.828Z,100169.31
2022-12-09T07:40:32.770Z,100169.31
2022-12-09T07:41:34.543Z,100172.69
2022-12-09T07:42:37.283Z,100170.06
2022-12-09T07:43:39.902Z,100171.75
2022-12-09T07:44:41.895Z,100166.50
2022-12-09T07:45:46.305Z,100171.75
2022-12-09T07:46:50.149Z,100169.13
2022-12-09T07:47:52.233Z,100171.75
2022-12-09T07:48:57.311Z,100177.00
2022-12-09T07:50:06.373Z,100172.69
2022-12-09T07:51:09.762Z,100169.97
2022-12-09T07:52:13.459Z,100179.63
2022-12-09T07:53:15.418Z,100184.88
2022-12-09T07:54:20.707Z,100177.00
2022-12-09T07:55:23.459Z,100182.97
2022-12-09T07:56:28.652Z,100179.44
2022-12-09T07:57:31.746Z,100175.03
2022-12-09T07:58:34.236Z,100180.16
2022-12-09T07:59:37.231Z,100188.03
2022-12-09T08:00:39.103Z,100187.22
2022-12-09T08:01:43.804Z,100182.78
2022-12-09T08:02:45.776Z,100188.03
2022-12-09T08:03:56.471Z,100189.72
2022-12-09T08:05:02.307Z,100190.56
2022-12-09T08:06:05.136Z,100190.50
2022-12-09T08:07:08.310Z,100194.78
2022-12-09T08:08:10.721Z,100194.78
2022-12-09T08:09:14.996Z,100194.78
2022-12-09T08:10:17.235Z,100192.94
2022-12-09T08:11:22.482Z,100198.91
2022-12-09T08:12:25.508Z,100206.59
2022-12-09T08:13:27.284Z,100205.66
2022-12-09T08:14:30.269Z,100207.16
2022-12-09T08:15:32.259Z,100207.91
2022-12-09T08:16:35.148Z,100207.69
2022-12-09T08:17:39.530Z,100199.63
2022-12-09T08:18:42.220Z,100205.59
2022-12-09T08:19:45.771Z,100207.97
2022-12-09T08:20:48.804Z,100205.06
2022-12-09T08:21:54.766Z,100206.50
2022-12-09T08:22:57.116Z,100199.41
2022-12-09T08:24:02.720Z,100211.41
2022-12-09T08:25:07.227Z,100199.84
2022-12-09T08:26:11.246Z,100203.22
2022-12-09T08:27:14.080Z,100206.47
2022-12-09T08:28:15.808Z,100201.03
2022-12-09T08:29:18.826Z,100200.75
2022-12-09T08:30:21.176Z,100195.38
2022-12-09T08:31:25.881Z,100197.06
2022-12-09T08:32:27.890Z,100194.44
2022-12-09T08:33:34.322Z,100196.13
2022-12-09T08:34:47.371Z,100199.50
2022-12-09T08:35:49.493Z,100195.16
2022-12-09T08:36:54.649Z,100195.16
2022-12-09T08:38:00.417Z,100191.72
2022-12-09T08:39:05.004Z,100194.34
2022-12-09T08:40:08.146Z,100193.38
2022-12-09T08:41:13.454Z,100208.31
2022-12-09T08:42:16.419Z,100200.44
2022-12-09T08:43:19.101Z,100197.78
2022-12-09T08:44:22.830Z,100195.94
2022-12-09T08:45:24.895Z,100195.94
2022-12-09T08:46:27.789Z,100190.69
2022-12-09T08:47:30.479Z,100197.72
2022-12-09T08:48:33.862Z,100189.81
2022-12-09T08:49:37.625Z,100195.94
2022-12-09T08:50:40.283Z,100197.50
2022-12-09T08:51:42.797Z,100196.66
2022-12-09T08:52:45.837Z,100197.50
2022-12-09T08:53:48.813Z,100193.09
2022-12-09T08:54:51.751Z,100199.94
2022-12-09T08:55:53.450Z,100194.59
2022-12-09T08:56:57.053Z,100195.41
2022-12-09T08:58:00.078Z,100191.75
2022-12-09T08:59:03.033Z,100192.59
2022-12-09T09:00:08.253Z,100192.50
2022-12-09T09:01:16.538Z,100191.44
2022-12-09T09:02:19.356Z,100191.34
2022-12-09T09:03:21.871Z,100197.34
2022-12-09T09:04:27.044Z,100192.00
2022-12-09T09:05:30.054Z,100194.50
2022-12-09T09:06:33.216Z,100191.78
2022-12-09T09:07:36.311Z,100194.28
2022-12-09T09:08:40.276Z,100191.66
2022-12-09T09:09:43.119Z,100194.28
2022-12-09T09:10:45.079Z,100198.53
2022-12-09T09:11:48.126Z,100194.94
2022-12-09T09:12:50.011Z,100192.22
2022-12-09T09:13:53.093Z,100194.66
2022-12-09T09:14:56.160Z,100197.28
2022-12-09T09:15:59.316Z,100193.72
2022-12-09T09:17:01.200Z,100198.13
2022-12-09T09:18:03.965Z,100193.72
2022-12-09T09:19:07.939Z,100196.34
2022-12-09T09:20:11.945Z,100199.91
2022-12-09T09:21:17.625Z,100202.53
2022-12-09T09:22:20.361Z,100205.16
2022-12-09T09:23:22.220Z,100203.47
2022-12-09T09:24:26.197Z,100203.47
2022-12-09T09:25:28.645Z,100206.09
2022-12-09T09:26:31.340Z,100209.56
2022-12-09T09:27:38.531Z,100210.41
2022-12-09T09:28:42.006Z,100213.03
2022-12-09T09:29:43.828Z,100211.16
2022-12-09T09:30:50.362Z,100212.13
2022-12-09T09:31:55.363Z,100207.66
2022-12-09T09:32:58.323Z,100211.06
2022-12-09T09:34:01.312Z,100212.84
2022-12-09T09:35:04.332Z,100212.75
2022-12-09T09:36:12.908Z,100214.53
2022-12-09T09:37:15.870Z,100216.19
2022-12-09T09:38:18.804Z,100214.53
2022-12-09T09:39:23.146Z,100215.47
2022-12-09T09:40:33.890Z,100215.47
2022-12-09T09:41:46.559Z,100210.28
2022-12-09T09:42:51.676Z,100212.84
2022-12-09T09:43:56.350Z,100215.69
2022-12-09T09:44:59.571Z,100213.91
2022-12-09T09:46:02.029Z,100216.41
2022-12-09T09:47:14.770Z,100215.47
2022-12-09T09:48:20.817Z,100219.78
2022-12-09T09:49:34.761Z,100214.53
2022-12-09T09:50:44.488Z,100212.84
2022-12-09T09:51:49.193Z,100205.88
2022-12-09T09:52:54.536Z,100213.03
2022-12-09T09:53:57.366Z,100205.25
2022-12-09T09:55:02.896Z,100204.53
2022-12-09T09:56:11.798Z,100208.00
2022-12-09T09:57:17.394Z,100206.31
2022-12-09T09:58:26.367Z,100208.00
2022-12-09T09:59:40.502Z,100208.00
2022-12-09T10:00:51.793Z,100203.59
2022-12-09T10:02:03.452Z,100208.84
2022-12-09T10:03:16.033Z,100204.44
2022-12-09T10:04:25.633Z,100200.84
2022-12-09T10:05:33.602Z,100199.91
2022-12-09T10:06:46.019Z,100210.28
2022-12-09T10:07:55.067Z,100200.75
2022-12-09T10:09:04.793Z,100205.88
2022-12-09T10:10:19.108Z,100204.03
2022-12-09T10:11:30.055Z,100200.53
2022-12-09T10:12:41.531Z,100202.41
2022-12-09T10:13:56.145Z,100200.84
2022-12-09T10:15:02.580Z,100200.00
2022-12-09T10:16:14.949Z,100204.44
2022-12-09T10:17:27.180Z,100194.72
2022-12-09T10:18:34.422Z,100197.28
2022-12-09T10:19:42.580Z,100197.06
2022-12-09T10:20:45.054Z,100195.94
2022-12-09T10:21:50.656Z,100197.50
2022-12-09T10:23:00.617Z,100191.31
2022-12-09T10:24:17.350Z,100190.28
2022-12-09T10:25:24.012Z,100183.13
2022-12-09T10:26:30.196Z,100184.81
2022-12-09T10:27:38.945Z,100185.53
2022-12-09T10:28:47.665Z,100190.59
2022-12-09T10:29:56.773Z,100188.50
2022-12-09T10:31:12.019Z,100189.16
2022-12-09T10:32:18.067Z,100186.41
2022-12-09T10:33:27.632Z,100179.47
2022-12-09T10:34:30.295Z,100182.91
2022-12-09T10:35:34.650Z,100185.53
2022-12-09T10:36:37.469Z,100183.97
2022-12-09T10:37:40.268Z,100184.19
2022-12-09T10:38:43.411Z,100185.16
2022-12-09T10:39:47.866Z,100179.25
2022-12-09T10:41:00.458Z,100179.97
2022-12-09T10:42:22.058Z,100177.34
2022-12-09T10:43:35.105Z,100185.16
2022-12-09T10:44:38.926Z,100175.34
2022-12-09T10:46:16.657Z,100178.63
2022-12-09T10:47:24.767Z,100175.88
2022-12-09T10:48:32.935Z,100180.28
2022-12-09T10:49:37.160Z,100183.03
2022-12-09T10:50:48.490Z,100178.00
2022-12-09T10:51:53.981Z,100177.25
2022-12-09T10:52:58.052Z,100181.56
2022-12-09T10:54:07.678Z,100179.91
2022-12-09T10:55:22.316Z,100174.63
2022-12-09T10:56:27.443Z,100175.56
2022-12-09T10:57:30.699Z,100169.38
2022-12-09T10:58:32.563Z,100169.38
2022-12-09T10:59:36.900Z,100176.28
2022-12-09T11:00:39.004Z,100169.16
2022-12-09T11:01:53.865Z,100170.09
2022-12-09T11:02:56.994Z,100170.81
2022-12-09T11:03:59.879Z,100170.81
2022-12-09T11:05:24.309Z,100162.00
2022-12-09T11:06:30.507Z,100166.31
2022-12-09T11:07:33.041Z,100167.25
2022-12-09T11:08:36.355Z,100158.31
2022-12-09T11:09:42.966Z,100166.13
2022-12-09T11:10:49.349Z,100161.56
2022-12-09T11:11:52.714Z,100162.41
2022-12-09T11:13:05.359Z,100161.69
2022-12-09T11:14:22.495Z,100167.03
2022-12-09T11:15:29.884Z,100161.06
2022-12-09T11:16:33.012Z,100165.34
2022-12-09T11:17:39.910Z,100163.78
2022-12-09T11:18:45.357Z,100161.28
2022-12-09T11:19:52.387Z,100156.94
2022-12-09T11:20:57.923Z,100164.13
2022-12-09T11:22:24.231Z,100167.69
2022-12-09T11:23:27.402Z,100162.50
2022-12-09T11:24:31.123Z,100160.94
2022-12-09T11:25:38.447Z,100158.31
2022-12-09T11:26:41.324Z,100155.69
2022-12-09T11:27:50.889Z,100154.75
2022-12-09T11:29:04.010Z,100158.31
2022-12-09T11:30:14.152Z,100153.78
2022-12-09T11:31:35.759Z,100162.41
2022-12-09T11:32:52.882Z,100153.59
2022-12-09T11:33:59.635Z,100155.25
2022-12-09T11:35:02.428Z,100164.84
2022-12-09T11:36:09.377Z,100161.28
2022-12-09T11:37:11.596Z,100162.00
2022-12-09T11:38:22.676Z,100160.09
2022-12-09T11:39:31.092Z,100162.50
2022-12-09T11:40:34.195Z,100162.41
2022-12-09T11:41:54.262Z,100161.38
2022-12-09T11:42:57.976Z,100162.94
2022-12-09T11:44:00.551Z,100165.47
2022-12-09T11:45:06.551Z,100154.81
2022-12-09T11:46:21.865Z,100157.38
2022-12-09T11:47:36.428Z,100151.88
2022-12-09T11:48:54.528Z,100156.00
2022-12-09T11:50:13.292Z,100146.94
2022-12-09T11:51:23.113Z,100149.16
2022-12-09T11:52:30.681Z,100141.13
2022-12-09T11:53:38.314Z,100141.75
2022-12-09T11:54:48.986Z,100148.72
2022-12-09T11:55:58.678Z,100142.50
2022-12-09T11:57:02.234Z,100145.78
2022-12-09T11:58:07.560Z,100147.34
2022-12-09T11:59:15.033Z,100141.94
2022-12-09T12:00:20.926Z,100147.00
2022-12-09T12:01:31.887Z,100143.44
2022-12-09T12:02:41.016Z,100141.63
2022-12-09T12:03:50.946Z,100140.91
2022-12-09T12:05:10.439Z,100144.28
2022-12-09T12:06:19.352Z,100143.34
2022-12-09T12:07:28.944Z,100144.28
2022-12-09T12:08:37.855Z,100142.56
2022-12-09T12:09:45.975Z,100145.34
2022-12-09T12:10:52.606Z,100139.22
2022-12-09T12:12:05.585Z,100141.84
2022-12-09T12:13:17.299Z,100139.94
2022-12-09T12:14:23.053Z,100132.06
2022-12-09T12:15:31.136Z,100140.69
2022-12-09T12:16:39.938Z,100140.69
2022-12-09T12:17:45.518Z,100138.06
2022-12-09T12:18:54.393Z,100134.59
2022-12-09T12:19:57.486Z,100133.75
2022-12-09T12:21:35.552Z,100132.06
2022-12-09T12:23:06.285Z,100138.28
2022-12-09T12:24:22.363Z,100131.34
2022-12-09T12:25:37.726Z,100133.84
2022-12-09T12:26:48.309Z,100133.97